createdAt,value
2019-02-23T00:00:03.692Z,103197.09
2019-02-23T00:02:32.115Z,103197.91
2019-02-23T00:05:00.548Z,103193.92
2019-02-23T00:07:29.100Z,103183.41
2019-02-23T00:09:57.548Z,103176.41
2019-02-23T00:12:26.230Z,103179.02
2019-02-23T00:14:54.739Z,103179.34
2019-02-23T00:17:23.289Z,103183.72
2019-02-23T00:19:51.798Z,103184.09
2019-02-23T00:22:20.404Z,103188.84
2019-02-23T00:24:48.995Z,103181.40
2019-02-23T00:27:17.538Z,103181.74
2019-02-23T00:29:46.072Z,103181.72
2019-02-23T00:32:14.568Z,103179.95
2019-02-23T00:34:43.102Z,103188.61
2019-02-23T00:37:11.630Z,103189.86
2019-02-23T00:39:40.081Z,103183.27
2019-02-23T00:42:08.544Z,103184.95
2019-02-23T00:44:37.242Z,103189.70
2019-02-23T00:47:05.756Z,103188.31
2019-02-23T00:49:36.615Z,103183.88
2019-02-23T00:52:04.747Z,103182.11
2019-02-23T00:54:33.383Z,103182.55
2019-02-23T00:57:01.911Z,103186.39
2019-02-23T00:59:30.416Z,103183.69
2019-02-23T01:01:58.872Z,103182.33
2019-02-23T01:04:27.318Z,103177.05
2019-02-23T01:06:55.826Z,103179.56
2019-02-23T01:09:24.362Z,103182.61
2019-02-23T01:11:52.914Z,103180.84
2019-02-23T01:14:21.456Z,103178.08
2019-02-23T01:16:50.220Z,103181.03
2019-02-23T01:19:18.750Z,103176.65
2019-02-23T01:21:47.299Z,103171.41
2019-02-23T01:24:15.759Z,103174.33
2019-02-23T01:26:44.257Z,103181.22
2019-02-23T01:29:12.850Z,103180.75
2019-02-23T01:31:41.350Z,103183.77
2019-02-23T01:34:09.882Z,103189.81
2019-02-23T01:36:38.586Z,103181.92
2019-02-23T01:39:07.365Z,103187.11
2019-02-23T01:41:35.959Z,103186.21
2019-02-23T01:44:04.462Z,103186.21
2019-02-23T01:46:33.020Z,103187.89
2019-02-23T01:49:01.561Z,103189.56
2019-02-23T01:51:30.158Z,103190.41
2019-02-23T01:53:58.712Z,103195.15
2019-02-23T01:56:27.341Z,103194.25
2019-02-23T01:58:55.772Z,103190.30
2019-02-23T02:01:24.483Z,103175.91
2019-02-23T02:03:53.080Z,103173.20
2019-02-23T02:06:21.681Z,103173.14
2019-02-23T02:08:50.099Z,103174.88
2019-02-23T02:11:18.696Z,103171.77
2019-02-23T02:13:47.122Z,103172.20
2019-02-23T02:16:15.650Z,103168.60
2019-02-23T02:18:44.140Z,103171.14
2019-02-23T02:21:12.817Z,103177.62
2019-02-23T02:23:41.258Z,103170.52
2019-02-23T02:26:09.771Z,103171.32
2019-02-23T02:28:38.228Z,103170.79
2019-02-23T02:31:06.667Z,103168.12
2019-02-23T02:33:38.190Z,103162.78
2019-02-23T02:36:06.794Z,103163.95
2019-02-23T02:38:35.779Z,103165.22
2019-02-23T02:41:04.263Z,103173.38
2019-02-23T02:43:32.788Z,103171.57
2019-02-23T02:46:01.369Z,103173.27
2019-02-23T02:48:29.907Z,103164.99
2019-02-23T02:50:58.390Z,103160.61
2019-02-23T02:53:26.868Z,103164.95
2019-02-23T02:55:55.541Z,103163.48
2019-02-23T02:58:24.009Z,103162.09
2019-02-23T03:00:52.432Z,103165.89
2019-02-23T03:03:20.889Z,103173.70
2019-02-23T03:05:49.310Z,103171.47
2019-02-23T03:08:17.943Z,103163.05
2019-02-23T03:10:46.372Z,103170.84
2019-02-23T03:13:14.914Z,103160.75
2019-02-23T03:15:43.547Z,103163.72
2019-02-23T03:18:12.036Z,103164.99
2019-02-23T03:20:40.642Z,103164.52
2019-02-23T03:23:09.057Z,103167.42
2019-02-23T03:25:37.581Z,103160.91
2019-02-23T03:28:06.017Z,103153.47
2019-02-23T03:30:34.461Z,103152.50
2019-02-23T03:33:02.957Z,103153.77
2019-02-23T03:35:31.495Z,103156.27
2019-02-23T03:38:00.436Z,103153.59
2019-02-23T03:40:28.883Z,103150.05
2019-02-23T03:42:57.624Z,103150.82
2019-02-23T03:45:26.140Z,103147.28
2019-02-23T03:47:54.667Z,103149.81
2019-02-23T03:50:23.125Z,103143.67
2019-02-23T03:52:51.553Z,103148.34
2019-02-23T03:55:20.177Z,103151.38
2019-02-23T03:57:48.611Z,103154.74
2019-02-23T04:00:17.324Z,103148.17
2019-02-23T04:02:45.800Z,103148.53
2019-02-23T04:05:14.447Z,103156.70
2019-02-23T04:07:42.952Z,103152.73
2019-02-23T04:10:11.648Z,103147.02
2019-02-23T04:12:40.082Z,103148.72
2019-02-23T04:15:08.909Z,103146.88
2019-02-23T04:17:37.417Z,103147.53
2019-02-23T04:20:07.683Z,103149.63
2019-02-23T04:22:36.206Z,103166.55
2019-02-23T04:25:06.805Z,103168.21
2019-02-23T04:27:35.536Z,103174.17
2019-02-23T04:30:05.127Z,103171.50
2019-02-23T04:32:33.663Z,103173.16
2019-02-23T04:35:02.121Z,103181.33
2019-02-23T04:37:30.631Z,103182.92
2019-02-23T04:39:59.135Z,103188.95
2019-02-23T04:42:27.620Z,103189.71
2019-02-23T04:44:56.294Z,103179.20
2019-02-23T04:47:24.909Z,103178.25
2019-02-23T04:49:54.677Z,103173.88
2019-02-23T04:52:23.211Z,103174.75
2019-02-23T04:54:51.736Z,103175.47
2019-02-23T04:57:20.190Z,103176.30
2019-02-23T04:59:48.690Z,103171.45
2019-02-23T05:02:17.314Z,103175.75
2019-02-23T05:04:45.807Z,103169.90
2019-02-23T05:07:14.220Z,103179.43
2019-02-23T05:09:42.687Z,103183.19
2019-02-23T05:12:11.193Z,103184.45
2019-02-23T05:14:39.922Z,103188.27
2019-02-23T05:17:08.295Z,103179.92
2019-02-23T05:19:36.834Z,103182.84
2019-02-23T05:22:05.306Z,103187.06
2019-02-23T05:24:33.747Z,103196.13
2019-02-23T05:27:02.200Z,103194.36
2019-02-23T05:29:30.735Z,103194.28
2019-02-23T05:31:59.656Z,103200.30
2019-02-23T05:34:28.255Z,103205.86
2019-02-23T05:36:56.989Z,103206.69
2019-02-23T05:39:25.482Z,103210.98
2019-02-23T05:41:53.860Z,103215.17
2019-02-23T05:44:22.318Z,103216.07
2019-02-23T05:46:50.824Z,103226.34
2019-02-23T05:49:19.456Z,103224.90
2019-02-23T05:51:47.868Z,103224.42
2019-02-23T05:54:16.412Z,103223.91
2019-02-23T05:56:45.013Z,103224.27
2019-02-23T05:59:13.466Z,103220.68
2019-02-23T06:01:41.908Z,103225.41
2019-02-23T06:04:10.455Z,103225.77
2019-02-23T06:06:38.961Z,103226.23
2019-02-23T06:09:07.499Z,103222.69
2019-02-23T06:11:36.058Z,103228.64
2019-02-23T06:14:04.601Z,103223.79
2019-02-23T06:16:33.035Z,103228.91
2019-02-23T06:19:01.900Z,103224.06
2019-02-23T06:21:30.342Z,103229.61
2019-02-23T06:23:58.801Z,103229.97
2019-02-23T06:26:27.245Z,103229.41
2019-02-23T06:28:55.714Z,103230.32
2019-02-23T06:31:24.373Z,103229.77
2019-02-23T06:33:52.939Z,103235.31
2019-02-23T06:36:21.435Z,103236.53
2019-02-23T06:38:49.943Z,103237.31
2019-02-23T06:41:18.402Z,103228.49
2019-02-23T06:43:46.890Z,103238.06
2019-02-23T06:46:15.339Z,103232.74
2019-02-23T06:48:43.836Z,103237.03
2019-02-23T06:51:12.381Z,103239.98
2019-02-23T06:53:40.912Z,103241.84
2019-02-23T06:56:09.424Z,103234.79
2019-02-23T06:58:38.062Z,103236.91
2019-02-23T07:01:06.522Z,103246.83
2019-02-23T07:03:35.196Z,103255.48
2019-02-23T07:06:04.053Z,103258.04
2019-02-23T07:08:32.628Z,103258.09
2019-02-23T07:11:01.411Z,103251.59
2019-02-23T07:13:29.907Z,103254.87
2019-02-23T07:15:58.588Z,103248.33
2019-02-23T07:18:27.102Z,103250.92
2019-02-23T07:20:55.603Z,103243.53
2019-02-23T07:23:24.058Z,103245.26
2019-02-23T07:25:52.517Z,103243.95
2019-02-23T07:28:21.083Z,103239.16
2019-02-23T07:30:49.583Z,103242.23
2019-02-23T07:33:31.884Z,103240.06
2019-02-23T07:35:48.439Z,103239.98
2019-02-23T07:38:17.136Z,103247.42
2019-02-23T07:40:45.565Z,103247.03
2019-02-23T07:43:14.111Z,103245.26
2019-02-23T07:45:42.602Z,103233.88
2019-02-23T07:48:11.052Z,103233.96
2019-02-23T07:50:39.547Z,103234.44
2019-02-23T07:53:08.247Z,103240.70
2019-02-23T07:55:36.823Z,103244.05
2019-02-23T07:58:05.630Z,103235.16
2019-02-23T08:00:34.124Z,103240.95
2019-02-23T08:03:02.665Z,103235.02
2019-02-23T08:05:31.091Z,103249.86
2019-02-23T08:07:59.728Z,103245.61
2019-02-23T08:10:28.218Z,103238.41
2019-02-23T08:12:56.880Z,103234.31
2019-02-23T08:15:25.378Z,103229.70
2019-02-23T08:17:53.991Z,103231.12
2019-02-23T08:20:22.451Z,103232.06
2019-02-23T08:22:53.700Z,103226.59
2019-02-23T08:25:22.228Z,103235.41
2019-02-23T08:27:50.792Z,103238.12
2019-02-23T08:30:19.298Z,103234.49
2019-02-23T08:32:47.729Z,103237.21
2019-02-23T08:35:16.280Z,103231.38
2019-02-23T08:37:44.753Z,103236.33
2019-02-23T08:40:14.958Z,103225.17
2019-02-23T08:42:44.593Z,103225.28
2019-02-23T08:45:13.146Z,103227.09
2019-02-23T08:47:41.854Z,103217.63
2019-02-23T08:50:15.145Z,103229.84
2019-02-23T08:52:49.265Z,103225.91
2019-02-23T08:55:13.960Z,103233.89
2019-02-23T08:57:42.552Z,103236.73
2019-02-23T09:00:14.194Z,103240.81
2019-02-23T09:02:42.704Z,103238.51
2019-02-23T09:05:12.016Z,103233.48
2019-02-23T09:07:40.636Z,103232.19
2019-02-23T09:10:13.337Z,103232.11
2019-02-23T09:12:41.998Z,103228.72
2019-02-23T09:15:11.320Z,103236.52
2019-02-23T09:17:39.933Z,103234.86
2019-02-23T09:20:12.789Z,103235.44
2019-02-23T09:22:41.304Z,103243.72
2019-02-23T09:25:10.993Z,103236.27
2019-02-23T09:27:39.616Z,103239.78
2019-02-23T09:30:12.986Z,103228.94
2019-02-23T09:32:41.562Z,103229.87
2019-02-23T09:35:10.967Z,103230.89
2019-02-23T09:37:39.584Z,103235.08
2019-02-23T09:40:13.985Z,103226.08
2019-02-23T09:42:42.634Z,103219.89
2019-02-23T09:45:12.659Z,103216.19
2019-02-23T09:47:41.266Z,103214.30
2019-02-23T09:50:09.918Z,103225.00
2019-02-23T09:52:38.374Z,103222.27
2019-02-23T09:55:08.656Z,103215.59
2019-02-23T09:57:37.147Z,103225.02
2019-02-23T10:00:11.195Z,103219.30
2019-02-23T10:02:39.702Z,103234.97
2019-02-23T10:05:08.870Z,103231.62
2019-02-23T10:07:37.628Z,103237.38
2019-02-23T10:10:08.746Z,103241.95
2019-02-23T10:12:37.215Z,103242.17
2019-02-23T10:15:07.888Z,103239.73
2019-02-23T10:17:36.391Z,103231.60
2019-02-23T10:20:07.290Z,103227.97
2019-02-23T10:22:35.907Z,103215.71
2019-02-23T10:25:05.117Z,103207.73
2019-02-23T10:27:33.737Z,103199.05
2019-02-23T10:30:02.253Z,103200.28
2019-02-23T10:32:30.691Z,103200.52
2019-02-23T10:34:59.131Z,103202.89
2019-02-23T10:37:27.694Z,103206.43
2019-02-23T10:39:56.229Z,103205.36
2019-02-23T10:42:24.960Z,103197.05
2019-02-23T10:44:53.421Z,103192.63
2019-02-23T10:47:21.933Z,103196.08
2019-02-23T10:49:50.369Z,103197.66
2019-02-23T10:52:19.011Z,103193.66
2019-02-23T10:54:47.636Z,103182.08
2019-02-23T10:57:16.166Z,103194.45
2019-02-23T10:59:44.700Z,103190.66
2019-02-23T11:02:14.115Z,103183.41
2019-02-23T11:04:42.655Z,103194.63
2019-02-23T11:07:11.280Z,103189.21
2019-02-23T11:09:40.093Z,103188.29
2019-02-23T11:12:08.813Z,103177.38
2019-02-23T11:14:37.358Z,103173.82
2019-02-23T11:17:05.980Z,103179.87
2019-02-23T11:19:34.658Z,103178.33
2019-02-23T11:22:03.361Z,103165.39
2019-02-23T11:24:31.890Z,103169.20
2019-02-23T11:27:00.582Z,103166.39
2019-02-23T11:29:30.342Z,103162.30
2019-02-23T11:31:58.864Z,103154.84
2019-02-23T11:34:27.764Z,103157.27
2019-02-23T11:36:56.407Z,103165.45
2019-02-23T11:39:25.009Z,103157.95
2019-02-23T11:41:53.553Z,103154.78
2019-02-23T11:44:22.133Z,103152.86
2019-02-23T11:46:59.769Z,103144.66
2019-02-23T11:49:20.960Z,103138.82
2019-02-23T11:51:49.538Z,103135.19
2019-02-23T11:54:17.982Z,103131.91
2019-02-23T11:56:46.658Z,103132.01
2019-02-23T11:59:15.238Z,103127.89
2019-02-23T12:01:43.936Z,103119.71
2019-02-23T12:04:12.482Z,103114.13
2019-02-23T12:06:41.091Z,103118.16
2019-02-23T12:09:09.781Z,103114.84
2019-02-23T12:11:38.469Z,103105.77
2019-02-23T12:14:06.991Z,103100.61
2019-02-23T12:16:35.537Z,103098.92
2019-02-23T12:19:04.238Z,103092.89
2019-02-23T12:21:32.736Z,103092.94
2019-02-23T12:24:06.031Z,103101.02
2019-02-23T12:26:31.631Z,103087.98
2019-02-23T12:29:00.416Z,103090.81
2019-02-23T12:31:28.852Z,103084.74
2019-02-23T12:33:57.406Z,103089.58
2019-02-23T12:36:25.848Z,103081.30
2019-02-23T12:38:54.360Z,103081.39
2019-02-23T12:41:23.361Z,103077.92
2019-02-23T12:43:52.079Z,103068.72
2019-02-23T12:46:20.608Z,103078.84
2019-02-23T12:48:49.153Z,103072.28
2019-02-23T12:51:17.772Z,103073.19
2019-02-23T12:53:46.219Z,103076.75
2019-02-23T12:56:14.749Z,103076.33
2019-02-23T12:58:43.215Z,103071.94
2019-02-23T13:01:11.678Z,103064.92
2019-02-23T13:03:40.211Z,103062.78
2019-02-23T13:06:08.754Z,103070.26
2019-02-23T13:09:12.311Z,103068.08
2019-02-23T13:11:41.885Z,103060.20
2019-02-23T13:14:30.214Z,103067.27
2019-02-23T13:17:10.904Z,103064.13
2019-02-23T13:19:58.795Z,103064.14
2019-02-23T13:22:30.274Z,103055.33
2019-02-23T13:25:25.988Z,103052.27
2019-02-23T13:28:09.437Z,103057.56
2019-02-23T13:30:49.534Z,103052.72
2019-02-23T13:33:32.656Z,103043.87
2019-02-23T13:36:25.035Z,103051.75
2019-02-23T13:39:08.470Z,103050.84
2019-02-23T13:41:54.973Z,103050.37
2019-02-23T13:44:32.437Z,103043.31
2019-02-23T13:47:09.627Z,103040.20
2019-02-23T13:50:02.412Z,103043.71
2019-02-23T13:52:55.277Z,103042.41
2019-02-23T13:55:54.011Z,103043.31
2019-02-23T13:58:37.569Z,103038.06
2019-02-23T14:01:14.882Z,103030.67
2019-02-23T14:03:55.392Z,103045.20
2019-02-23T14:06:26.931Z,103037.28
2019-02-23T14:09:25.699Z,103026.27
2019-02-23T14:12:16.712Z,103022.72
2019-02-23T14:15:21.446Z,103019.22
2019-02-23T14:17:58.767Z,103019.27
2019-02-23T14:20:41.990Z,103017.08
2019-02-23T14:23:22.260Z,103020.13
2019-02-23T14:26:16.560Z,103018.78
2019-02-23T14:28:48.072Z,103020.81
2019-02-23T14:31:34.855Z,103017.58
2019-02-23T14:34:12.190Z,103014.80
2019-02-23T14:37:01.933Z,103019.49
2019-02-23T14:39:33.634Z,103014.79
2019-02-23T14:42:17.258Z,103011.80
2019-02-23T14:45:06.537Z,103017.48
2019-02-23T14:47:43.818Z,103016.13
2019-02-23T14:50:45.525Z,103015.63
2019-02-23T14:53:29.241Z,103012.08
2019-02-23T14:56:18.877Z,103018.56
2019-02-23T14:58:50.406Z,103014.11
2019-02-23T15:01:24.773Z,103010.14
2019-02-23T15:04:16.015Z,103009.67
2019-02-23T15:06:56.667Z,103012.73
2019-02-23T15:09:42.977Z,103007.46
2019-02-23T15:12:19.695Z,103007.41
2019-02-23T15:14:57.358Z,103003.41
2019-02-23T15:17:34.976Z,103006.45
2019-02-23T15:20:27.998Z,103017.83
2019-02-23T15:23:08.392Z,103014.73
2019-02-23T15:25:55.048Z,103010.78
2019-02-23T15:28:44.469Z,103010.78
2019-02-23T15:31:32.865Z,103007.69
2019-02-23T15:34:04.387Z,103011.56
2019-02-23T15:36:59.781Z,103008.84
2019-02-23T15:39:50.044Z,103003.92
2019-02-23T15:42:27.608Z,103005.22
2019-02-23T15:45:15.816Z,102998.61
2019-02-23T15:48:01.878Z,102997.30
2019-02-23T15:50:30.500Z,102993.33
2019-02-23T15:52:59.155Z,102996.86
2019-02-23T15:55:29.833Z,102996.35
2019-02-23T15:57:58.478Z,102999.37
2019-02-23T16:00:27.055Z,103002.33
2019-02-23T16:02:55.591Z,103006.21
2019-02-23T16:05:24.116Z,103008.77
2019-02-23T16:07:52.722Z,103001.70
2019-02-23T16:10:21.310Z,103002.53
2019-02-23T16:12:49.840Z,103016.03
2019-02-23T16:15:18.470Z,103009.88
2019-02-23T16:17:46.986Z,103015.54
2019-02-23T16:20:15.531Z,103015.48
2019-02-23T16:22:44.175Z,103015.01
2019-02-23T16:25:12.702Z,103026.30
2019-02-23T16:27:41.289Z,103020.58
2019-02-23T16:30:10.872Z,103022.28
2019-02-23T16:32:39.411Z,103029.69
2019-02-23T16:35:08.486Z,103027.48
2019-02-23T16:37:37.056Z,103020.81
2019-02-23T16:40:07.013Z,103025.59
2019-02-23T16:42:35.616Z,103025.08
2019-02-23T16:45:06.072Z,103026.30
2019-02-23T16:47:34.653Z,103025.38
2019-02-23T16:50:03.308Z,103024.45
2019-02-23T16:52:31.896Z,103031.84
2019-02-23T16:55:00.472Z,103022.97
2019-02-23T16:57:28.963Z,103027.28
2019-02-23T16:59:57.418Z,103028.53
2019-02-23T17:02:26.072Z,103031.09
2019-02-23T17:04:54.585Z,103030.12
2019-02-23T17:07:23.138Z,103025.25
2019-02-23T17:09:51.635Z,103025.63
2019-02-23T17:12:20.103Z,103020.79
2019-02-23T17:14:48.571Z,103022.44
2019-02-23T17:17:17.197Z,103030.13
2019-02-23T17:19:45.964Z,103029.44
2019-02-23T17:22:14.519Z,103027.44
2019-02-23T17:24:43.188Z,103033.82
2019-02-23T17:27:11.625Z,103037.99
2019-02-23T17:29:40.263Z,103030.81
2019-02-23T17:32:08.819Z,103028.95
2019-02-23T17:34:37.333Z,103027.92
2019-02-23T17:37:05.850Z,103035.23
2019-02-23T17:39:34.405Z,103033.37
2019-02-23T17:42:03.003Z,103036.27
2019-02-23T17:44:31.504Z,103044.03
2019-02-23T17:47:00.065Z,103039.97
2019-02-23T17:49:28.754Z,103043.78
2019-02-23T17:51:57.260Z,103038.39
2019-02-23T17:54:25.882Z,103028.23
2019-02-23T17:56:54.380Z,103026.37
2019-02-23T17:59:22.949Z,103029.33
2019-02-23T18:01:51.487Z,103024.00
2019-02-23T18:04:20.260Z,103021.67
2019-02-23T18:06:48.749Z,103025.95
2019-02-23T18:09:17.285Z,103028.91
2019-02-23T18:11:45.852Z,103034.91
2019-02-23T18:14:15.784Z,103030.01
2019-02-23T18:16:44.670Z,103030.81
2019-02-23T18:19:13.129Z,103035.53
2019-02-23T18:21:41.752Z,103045.49
2019-02-23T18:24:10.195Z,103041.85
2019-02-23T18:26:38.735Z,103050.78
2019-02-23T18:29:07.816Z,103039.73
2019-02-23T18:31:36.440Z,103039.73
2019-02-23T18:34:04.958Z,103049.30
2019-02-23T18:36:33.495Z,103056.18
2019-02-23T18:39:02.112Z,103052.19
2019-02-23T18:41:30.747Z,103054.74
2019-02-23T18:43:59.240Z,103048.59
2019-02-23T18:46:27.848Z,103047.17
2019-02-23T18:48:56.275Z,103047.23
2019-02-23T18:51:25.158Z,103047.23
2019-02-23T18:53:53.600Z,103050.28
2019-02-23T18:56:29.416Z,103050.28
2019-02-23T18:58:52.340Z,103053.70
2019-02-23T19:01:21.089Z,103056.63
2019-02-23T19:03:49.586Z,103057.37
2019-02-23T19:06:18.283Z,103054.74
2019-02-23T19:08:47.004Z,103059.00
2019-02-23T19:11:15.465Z,103054.52
2019-02-23T19:13:44.073Z,103056.10
2019-02-23T19:16:12.555Z,103056.44
2019-02-23T19:18:41.210Z,103062.48
2019-02-23T19:21:09.798Z,103060.62
2019-02-23T19:23:38.329Z,103060.09
2019-02-23T19:26:06.996Z,103061.31
2019-02-23T19:28:43.018Z,103057.73
2019-02-23T19:31:05.911Z,103061.92
2019-02-23T19:33:34.570Z,103060.52
2019-02-23T19:36:03.188Z,103059.16
2019-02-23T19:38:31.727Z,103062.48
2019-02-23T19:41:00.348Z,103065.02
2019-02-23T19:43:28.810Z,103059.69
2019-02-23T19:45:57.437Z,103063.06
2019-02-23T19:48:25.997Z,103057.33
2019-02-23T19:50:58.103Z,103066.84
2019-02-23T19:53:26.568Z,103066.36
2019-02-23T19:55:55.230Z,103068.40
2019-02-23T19:58:23.720Z,103072.70
2019-02-23T20:00:52.370Z,103077.78
2019-02-23T20:03:20.868Z,103076.39
2019-02-23T20:05:49.892Z,103079.38
2019-02-23T20:08:18.710Z,103077.09
2019-02-23T20:10:47.154Z,103075.27
2019-02-23T20:13:15.835Z,103075.59
2019-02-23T20:15:44.416Z,103073.34
2019-02-23T20:18:12.950Z,103078.03
2019-02-23T20:20:42.160Z,103079.26
2019-02-23T20:23:10.788Z,103074.77
2019-02-23T20:25:39.420Z,103085.03
2019-02-23T20:28:08.010Z,103077.92
2019-02-23T20:30:36.544Z,103086.56
2019-02-23T20:33:05.081Z,103076.91
2019-02-23T20:35:33.671Z,103073.38
2019-02-23T20:38:02.184Z,103077.20
2019-02-23T20:40:30.847Z,103081.14
2019-02-23T20:42:59.360Z,103074.69
2019-02-23T20:45:27.945Z,103076.86
2019-02-23T20:47:56.748Z,103063.64
2019-02-23T20:50:25.259Z,103073.41
2019-02-23T20:52:53.736Z,103075.45
2019-02-23T20:55:24.058Z,103075.31
2019-02-23T20:57:52.731Z,103074.78
2019-02-23T21:00:21.362Z,103073.45
2019-02-23T21:02:49.807Z,103071.56
2019-02-23T21:05:20.156Z,103073.61
2019-02-23T21:07:48.975Z,103075.29
2019-02-23T21:10:17.612Z,103072.09
2019-02-23T21:12:46.144Z,103078.12
2019-02-23T21:15:15.065Z,103078.89
2019-02-23T21:17:43.496Z,103072.69
2019-02-23T21:20:12.284Z,103076.57
2019-02-23T21:22:40.737Z,103075.61
2019-02-23T21:25:10.096Z,103068.16
2019-02-23T21:27:38.627Z,103071.98
2019-02-23T21:30:09.205Z,103074.95
2019-02-23T21:32:37.734Z,103077.50
2019-02-23T21:35:08.214Z,103073.06
2019-02-23T21:37:36.838Z,103070.80
2019-02-23T21:40:08.030Z,103077.24
2019-02-23T21:42:36.672Z,103072.88
2019-02-23T21:45:07.385Z,103064.49
2019-02-23T21:47:36.021Z,103059.19
2019-02-23T21:50:07.054Z,103060.89
2019-02-23T21:52:35.679Z,103059.09
2019-02-23T21:55:04.451Z,103060.27
2019-02-23T21:57:33.222Z,103059.34
2019-02-23T22:00:01.736Z,103061.91
2019-02-23T22:02:30.438Z,103051.42
2019-02-23T22:04:58.964Z,103058.77
2019-02-23T22:07:27.414Z,103055.64
2019-02-23T22:09:55.873Z,103057.31
2019-02-23T22:12:24.458Z,103059.81
2019-02-23T22:14:53.055Z,103057.14
2019-02-23T22:17:21.499Z,103055.81
2019-02-23T22:19:49.947Z,103057.45
2019-02-23T22:22:18.509Z,103058.72
2019-02-23T22:24:46.934Z,103051.28
2019-02-23T22:27:15.383Z,103050.75
2019-02-23T22:29:43.928Z,103047.61
2019-02-23T22:32:12.361Z,103049.22
2019-02-23T22:34:40.844Z,103051.72
2019-02-23T22:37:09.360Z,103052.09
2019-02-23T22:39:37.841Z,103051.55
2019-02-23T22:42:06.443Z,103037.61
2019-02-23T22:44:34.991Z,103052.75
2019-02-23T22:47:03.505Z,103050.05
2019-02-23T22:49:32.238Z,103052.59
2019-02-23T22:52:00.674Z,103058.62
2019-02-23T22:54:29.206Z,103062.00
2019-02-23T22:56:57.660Z,103063.59
2019-02-23T22:59:26.117Z,103057.89
2019-02-23T23:01:54.813Z,103069.60
2019-02-23T23:04:23.337Z,103062.09
2019-02-23T23:06:51.838Z,103065.09
2019-02-23T23:09:20.756Z,103064.16
2019-02-23T23:11:49.379Z,103071.86
2019-02-23T23:14:17.925Z,103060.05
2019-02-23T23:16:46.460Z,103065.19
2019-02-23T23:19:15.124Z,103070.69
2019-02-23T23:21:43.639Z,103071.12
2019-02-23T23:24:12.168Z,103069.67
2019-02-23T23:26:40.629Z,103075.71
2019-02-23T23:29:09.120Z,103064.73
2019-02-23T23:31:37.623Z,103075.07
2019-02-23T23:34:06.152Z,103076.27
2019-02-23T23:36:34.684Z,103071.89
2019-02-23T23:39:03.845Z,103066.98
2019-02-23T23:41:32.585Z,103082.59
2019-02-23T23:44:01.176Z,103075.22
2019-02-23T23:46:29.694Z,103075.98
2019-02-23T23:48:58.282Z,103081.11
2019-02-23T23:51:26.767Z,103084.91
2019-02-23T23:53:55.360Z,103082.66
2019-02-23T23:56:24.061Z,103092.13
2019-02-23T23:58:52.503Z,103087.22
